createdAt,value
2017-12-29T00:00:37.138Z,4.43
2017-12-29T00:03:05.597Z,3.67
2017-12-29T00:05:33.838Z,4.33
2017-12-29T00:08:02.140Z,4.07
2017-12-29T00:10:30.383Z,4.73
2017-12-29T00:12:58.622Z,3.97
2017-12-29T00:15:27.447Z,4.30
2017-12-29T00:17:55.681Z,4.50
2017-12-29T00:20:23.927Z,8.67
2017-12-29T00:22:52.409Z,4.80
2017-12-29T00:25:20.656Z,4.80
2017-12-29T00:27:48.901Z,3.70
2017-12-29T00:30:17.183Z,4.50
2017-12-29T00:32:46.354Z,4.07
2017-12-29T00:35:14.602Z,4.10
2017-12-29T00:37:43.368Z,4.33
2017-12-29T00:40:12.570Z,4.97
2017-12-29T00:42:40.830Z,4.57
2017-12-29T00:45:09.120Z,3.90
2017-12-29T00:47:37.514Z,4.30
2017-12-29T00:50:05.742Z,4.10
2017-12-29T00:52:34.003Z,3.87
2017-12-29T00:55:02.279Z,4.10
2017-12-29T00:57:31.290Z,3.77
2017-12-29T00:59:59.845Z,4.23
2017-12-29T01:02:28.090Z,4.53
2017-12-29T01:04:56.710Z,4.10
2017-12-29T01:07:26.074Z,3.40
2017-12-29T01:09:54.362Z,6.20
2017-12-29T01:12:22.609Z,4.10
2017-12-29T01:14:50.875Z,3.87
2017-12-29T01:17:19.122Z,3.33
2017-12-29T01:19:47.461Z,3.20
2017-12-29T01:22:15.802Z,4.03
2017-12-29T01:24:44.041Z,3.57
2017-12-29T01:27:12.287Z,3.27
2017-12-29T01:29:40.564Z,2.80
2017-12-29T01:32:08.810Z,3.43
2017-12-29T01:34:37.054Z,3.90
2017-12-29T01:37:05.322Z,3.30
2017-12-29T01:39:33.564Z,3.00
2017-12-29T01:42:01.806Z,3.57
2017-12-29T01:44:30.518Z,3.53
2017-12-29T01:46:58.771Z,3.80
2017-12-29T01:49:27.030Z,3.20
2017-12-29T01:51:55.466Z,2.53
2017-12-29T01:54:23.686Z,3.20
2017-12-29T01:56:52.697Z,3.00
2017-12-29T01:59:20.957Z,3.40
2017-12-29T02:01:49.198Z,2.93
2017-12-29T02:04:17.438Z,3.20
2017-12-29T02:06:48.093Z,2.03
2017-12-29T02:09:16.326Z,3.30
2017-12-29T02:11:44.762Z,3.60
2017-12-29T02:14:13.035Z,3.30
2017-12-29T02:16:41.262Z,3.57
2017-12-29T02:19:09.586Z,3.73
2017-12-29T02:21:37.848Z,3.50
2017-12-29T02:24:06.086Z,3.70
2017-12-29T02:26:35.098Z,2.63
2017-12-29T02:29:03.410Z,3.40
2017-12-29T02:31:31.655Z,3.27
2017-12-29T02:33:59.903Z,2.63
2017-12-29T02:36:28.934Z,3.70
2017-12-29T02:38:57.939Z,3.33
2017-12-29T02:41:26.174Z,3.20
2017-12-29T02:43:54.442Z,2.90
2017-12-29T02:46:22.687Z,2.97
2017-12-29T02:48:50.953Z,2.77
2017-12-29T02:51:19.255Z,4.20
2017-12-29T02:53:47.498Z,2.80
2017-12-29T02:56:15.740Z,3.17
2017-12-29T02:58:44.002Z,3.33
2017-12-29T03:01:13.015Z,3.87
2017-12-29T03:03:41.258Z,3.90
2017-12-29T03:06:09.524Z,3.43
2017-12-29T03:08:38.135Z,4.03
2017-12-29T03:11:07.133Z,3.97
2017-12-29T03:13:36.380Z,3.00
2017-12-29T03:16:04.618Z,3.33
2017-12-29T03:18:32.850Z,3.93
2017-12-29T03:21:01.124Z,3.60
2017-12-29T03:23:29.358Z,3.30
2017-12-29T03:25:57.807Z,3.90
2017-12-29T03:28:26.837Z,4.03
2017-12-29T03:30:55.075Z,3.63
2017-12-29T03:33:23.311Z,3.90
2017-12-29T03:35:51.890Z,2.63
2017-12-29T03:38:20.138Z,3.63
2017-12-29T03:40:48.375Z,3.80
2017-12-29T03:43:18.814Z,3.47
2017-12-29T03:45:47.826Z,3.20
2017-12-29T03:48:16.834Z,3.13
2017-12-29T03:50:45.110Z,3.17
2017-12-29T03:53:14.265Z,3.77
2017-12-29T03:55:42.513Z,3.60
2017-12-29T03:58:10.990Z,4.77
2017-12-29T04:00:39.234Z,2.50
2017-12-29T04:03:07.473Z,3.80
2017-12-29T04:05:36.506Z,4.00
2017-12-29T04:08:04.755Z,4.07
2017-12-29T04:10:33.462Z,3.97
2017-12-29T04:13:02.489Z,4.40
2017-12-29T04:15:30.738Z,4.10
2017-12-29T04:17:58.983Z,3.07
2017-12-29T04:20:27.630Z,2.77
2017-12-29T04:22:55.870Z,3.97
2017-12-29T04:25:24.110Z,3.90
2017-12-29T04:27:52.369Z,3.23
2017-12-29T04:30:20.610Z,3.53
2017-12-29T04:32:48.861Z,3.10
2017-12-29T04:35:17.902Z,4.00
2017-12-29T04:37:46.134Z,3.90
2017-12-29T04:40:14.370Z,3.83
2017-12-29T04:42:43.042Z,3.70
2017-12-29T04:45:11.282Z,3.97
2017-12-29T04:47:39.526Z,4.77
2017-12-29T04:50:08.553Z,4.53
2017-12-29T04:52:36.798Z,4.00
2017-12-29T04:55:05.478Z,3.90
2017-12-29T04:57:33.742Z,2.50
2017-12-29T05:00:01.987Z,2.70
2017-12-29T05:02:30.230Z,3.00
2017-12-29T05:04:58.757Z,4.20
2017-12-29T05:07:26.994Z,4.60
2017-12-29T05:09:55.450Z,3.70
2017-12-29T05:12:23.882Z,3.93
2017-12-29T05:14:52.126Z,3.83
2017-12-29T05:17:20.363Z,3.93
2017-12-29T05:19:48.681Z,4.57
2017-12-29T05:22:17.683Z,3.10
2017-12-29T05:24:46.699Z,2.67
2017-12-29T05:27:15.398Z,4.20
2017-12-29T05:29:43.643Z,4.37
2017-12-29T05:32:11.886Z,4.00
2017-12-29T05:34:40.155Z,3.10
2017-12-29T05:37:08.390Z,4.80
2017-12-29T05:39:36.643Z,5.30
2017-12-29T05:42:05.674Z,4.47
2017-12-29T05:44:33.918Z,4.70
2017-12-29T05:47:02.157Z,5.00
2017-12-29T05:49:30.818Z,4.63
2017-12-29T05:51:59.120Z,3.60
2017-12-29T05:54:27.362Z,3.10
2017-12-29T05:56:55.626Z,4.00
2017-12-29T05:59:23.866Z,3.80
2017-12-29T06:01:52.107Z,4.60
2017-12-29T06:04:20.370Z,5.23
2017-12-29T06:06:48.606Z,3.40
2017-12-29T06:09:16.863Z,3.90
2017-12-29T06:11:45.618Z,3.70
2017-12-29T06:14:14.256Z,4.30
2017-12-29T06:16:43.262Z,3.63
2017-12-29T06:19:12.291Z,4.10
2017-12-29T06:21:40.528Z,4.60
2017-12-29T06:24:08.775Z,4.60
2017-12-29T06:26:37.802Z,3.97
2017-12-29T06:29:06.042Z,3.87
2017-12-29T06:31:34.282Z,3.57
2017-12-29T06:34:02.630Z,4.70
2017-12-29T06:36:30.877Z,3.60
2017-12-29T06:38:59.143Z,4.07
2017-12-29T06:41:27.697Z,4.07
2017-12-29T06:43:56.734Z,4.33
2017-12-29T06:46:25.913Z,4.50
2017-12-29T06:48:54.183Z,3.10
2017-12-29T06:51:22.418Z,3.90
2017-12-29T06:53:50.660Z,4.23
2017-12-29T06:56:19.017Z,3.93
2017-12-29T06:58:47.259Z,4.33
2017-12-29T07:01:15.582Z,3.43
2017-12-29T07:03:43.847Z,3.60
2017-12-29T07:06:12.090Z,4.00
2017-12-29T07:08:40.330Z,3.00
2017-12-29T07:11:08.591Z,3.40
2017-12-29T07:13:36.834Z,4.57
2017-12-29T07:16:05.442Z,4.67
2017-12-29T07:18:34.002Z,4.50
2017-12-29T07:21:03.235Z,4.67
2017-12-29T07:23:31.478Z,5.57
2017-12-29T07:25:59.738Z,5.60
2017-12-29T07:28:27.982Z,5.63
2017-12-29T07:30:56.226Z,5.30
2017-12-29T07:33:24.485Z,4.83
2017-12-29T07:35:52.726Z,5.30
2017-12-29T07:38:20.967Z,5.27
2017-12-29T07:40:49.414Z,4.80
2017-12-29T07:43:17.662Z,3.07
2017-12-29T07:45:45.910Z,5.43
2017-12-29T07:48:14.172Z,5.03
2017-12-29T07:50:42.423Z,3.97
2017-12-29T07:53:10.662Z,3.97
2017-12-29T07:55:39.702Z,4.40
2017-12-29T07:58:07.930Z,5.37
2017-12-29T08:00:36.172Z,3.30
2017-12-29T08:03:04.522Z,5.07
2017-12-29T08:05:32.766Z,4.33
2017-12-29T08:08:01.016Z,5.03
2017-12-29T08:10:29.279Z,4.40
2017-12-29T08:12:57.518Z,4.70
2017-12-29T08:15:25.770Z,4.00
2017-12-29T08:17:55.034Z,5.10
2017-12-29T08:20:23.398Z,3.77
2017-12-29T08:22:51.638Z,4.97
2017-12-29T08:25:19.965Z,4.87
2017-12-29T08:27:50.111Z,4.93
2017-12-29T08:30:19.130Z,4.50
2017-12-29T08:32:47.392Z,4.70
2017-12-29T08:35:15.632Z,4.97
2017-12-29T08:37:43.878Z,4.10
2017-12-29T08:40:12.138Z,4.97
2017-12-29T08:42:40.377Z,4.63
2017-12-29T08:45:08.637Z,3.67
2017-12-29T08:47:37.198Z,4.77
2017-12-29T08:50:05.446Z,5.60
2017-12-29T08:52:33.690Z,4.47
2017-12-29T08:55:02.725Z,5.10
2017-12-29T08:57:30.965Z,5.10
2017-12-29T08:59:59.973Z,4.73
2017-12-29T09:02:29.005Z,4.60
2017-12-29T09:04:57.246Z,4.13
2017-12-29T09:07:25.491Z,4.83
2017-12-29T09:09:54.146Z,4.33
2017-12-29T09:12:22.395Z,3.77
2017-12-29T09:14:50.642Z,4.00
2017-12-29T09:17:18.935Z,4.33
2017-12-29T09:19:47.326Z,4.60
2017-12-29T09:22:15.564Z,4.30
2017-12-29T09:24:43.826Z,4.20
2017-12-29T09:27:12.074Z,5.13
2017-12-29T09:29:40.322Z,4.90
2017-12-29T09:32:08.942Z,3.83
2017-12-29T09:34:37.265Z,4.03
2017-12-29T09:37:05.510Z,4.20
2017-12-29T09:39:33.770Z,4.80
2017-12-29T09:42:02.006Z,4.60
2017-12-29T09:44:30.442Z,4.20
2017-12-29T09:46:58.706Z,3.27
2017-12-29T09:49:26.938Z,3.77
2017-12-29T09:51:55.950Z,2.93
2017-12-29T09:54:24.359Z,3.17
2017-12-29T09:56:52.610Z,3.20
2017-12-29T09:59:20.840Z,2.60
2017-12-29T10:01:49.127Z,2.90
2017-12-29T10:04:17.488Z,2.97
2017-12-29T10:06:45.866Z,3.00
2017-12-29T10:09:14.442Z,3.10
2017-12-29T10:11:42.674Z,2.60
2017-12-29T10:14:12.852Z,2.20
2017-12-29T10:16:41.424Z,2.63
2017-12-29T10:19:09.650Z,3.33
2017-12-29T10:21:38.654Z,2.40
2017-12-29T10:24:06.929Z,2.40
2017-12-29T10:26:35.249Z,2.33
2017-12-29T10:29:03.476Z,2.60
2017-12-29T10:31:32.501Z,2.93
2017-12-29T10:34:00.740Z,2.20
2017-12-29T10:36:29.682Z,2.73
2017-12-29T10:38:57.978Z,2.80
2017-12-29T10:41:28.635Z,2.83
2017-12-29T10:43:56.939Z,2.90
2017-12-29T10:46:26.416Z,2.80
2017-12-29T10:48:55.425Z,3.07
2017-12-29T10:51:24.434Z,2.73
2017-12-29T10:53:52.706Z,3.30
2017-12-29T10:56:21.125Z,2.60
2017-12-29T10:58:49.370Z,2.70
2017-12-29T11:01:17.966Z,2.90
2017-12-29T11:03:46.203Z,2.40
2017-12-29T11:06:14.452Z,2.43
2017-12-29T11:08:42.703Z,3.13
2017-12-29T11:11:10.942Z,2.70
2017-12-29T11:13:39.195Z,2.67
2017-12-29T11:16:07.449Z,2.70
2017-12-29T11:18:35.686Z,2.40
2017-12-29T11:21:04.119Z,2.77
2017-12-29T11:23:32.471Z,2.23
2017-12-29T11:26:00.758Z,2.07
2017-12-29T11:28:28.994Z,2.43
2017-12-29T11:30:57.262Z,2.30
2017-12-29T11:33:25.506Z,2.30
2017-12-29T11:35:53.750Z,3.03
2017-12-29T11:38:22.026Z,2.43
2017-12-29T11:40:50.266Z,2.77
2017-12-29T11:43:18.506Z,1.70
2017-12-29T11:45:47.266Z,2.27
2017-12-29T11:48:15.514Z,1.80
2017-12-29T11:50:43.755Z,2.50
2017-12-29T11:53:14.803Z,2.43
2017-12-29T11:55:43.810Z,2.20
2017-12-29T11:58:12.815Z,2.40
2017-12-29T12:00:41.074Z,2.23
2017-12-29T12:03:09.325Z,2.30
2017-12-29T12:05:37.554Z,2.00
2017-12-29T12:08:05.896Z,2.20
2017-12-29T12:10:34.130Z,2.10
2017-12-29T12:13:02.362Z,2.43
2017-12-29T12:15:30.630Z,2.80
2017-12-29T12:17:58.909Z,1.87
2017-12-29T12:20:27.918Z,2.10
2017-12-29T12:22:56.187Z,2.03
2017-12-29T12:25:24.630Z,2.30
2017-12-29T12:27:53.930Z,2.13
2017-12-29T12:30:22.390Z,2.20
2017-12-29T12:32:50.691Z,2.97
2017-12-29T12:35:18.950Z,2.23
2017-12-29T12:37:47.214Z,1.53
2017-12-29T12:40:15.458Z,2.53
2017-12-29T12:42:43.706Z,2.30
2017-12-29T12:45:11.977Z,1.93
2017-12-29T12:47:40.227Z,1.70
2017-12-29T12:50:08.478Z,1.97
2017-12-29T12:52:39.082Z,2.00
2017-12-29T12:55:07.334Z,2.30
2017-12-29T12:57:35.589Z,2.70
2017-12-29T13:00:03.862Z,1.87
2017-12-29T13:02:32.146Z,2.83
2017-12-29T13:05:00.386Z,2.70
2017-12-29T13:07:28.650Z,1.97
2017-12-29T13:09:57.670Z,2.40
2017-12-29T13:12:25.911Z,2.53
2017-12-29T13:14:54.320Z,2.57
2017-12-29T13:17:22.562Z,2.80
2017-12-29T13:19:53.591Z,2.37
2017-12-29T13:22:22.138Z,2.20
2017-12-29T13:24:51.590Z,2.50
2017-12-29T13:27:19.833Z,2.40
2017-12-29T13:29:48.096Z,2.60
2017-12-29T13:32:16.345Z,2.20
2017-12-29T13:34:44.598Z,2.00
2017-12-29T13:37:13.698Z,2.40
2017-12-29T13:39:41.949Z,2.57
2017-12-29T13:42:10.201Z,2.50
2017-12-29T13:44:38.495Z,1.97
2017-12-29T13:47:06.734Z,2.30
2017-12-29T13:49:34.975Z,2.47
2017-12-29T13:52:03.834Z,2.10
2017-12-29T13:54:32.114Z,3.03
2017-12-29T13:57:00.522Z,2.13
2017-12-29T13:59:28.834Z,3.17
2017-12-29T14:01:57.078Z,2.60
2017-12-29T14:04:26.552Z,2.63
2017-12-29T14:06:54.825Z,2.67
2017-12-29T14:09:23.073Z,2.83
2017-12-29T14:11:51.310Z,2.67
2017-12-29T14:14:19.584Z,3.30
2017-12-29T14:16:47.824Z,2.30
2017-12-29T14:19:16.218Z,2.23
2017-12-29T14:21:44.849Z,2.97
2017-12-29T14:24:13.279Z,2.67
2017-12-29T14:26:41.663Z,3.00
2017-12-29T14:29:09.931Z,2.53
2017-12-29T14:31:39.330Z,2.30
2017-12-29T14:34:07.569Z,2.93
2017-12-29T14:36:35.842Z,3.30
2017-12-29T14:39:04.094Z,3.40
2017-12-29T14:41:32.332Z,2.80
2017-12-29T14:44:00.751Z,3.23
2017-12-29T14:46:28.991Z,3.70
2017-12-29T14:48:57.234Z,2.73
2017-12-29T14:51:25.497Z,3.10
2017-12-29T14:53:53.747Z,4.63
2017-12-29T14:56:22.201Z,3.43
2017-12-29T14:58:50.459Z,3.00
2017-12-29T15:01:18.694Z,2.60
2017-12-29T15:03:47.706Z,3.27
2017-12-29T15:06:20.370Z,4.20
2017-12-29T15:08:49.386Z,3.40
2017-12-29T15:11:22.649Z,3.83
2017-12-29T15:13:50.890Z,3.60
2017-12-29T15:16:19.137Z,3.10
2017-12-29T15:18:47.422Z,4.07
2017-12-29T15:21:15.670Z,3.53
2017-12-29T15:23:45.134Z,3.43
2017-12-29T15:26:13.601Z,3.30
2017-12-29T15:28:42.090Z,3.20
2017-12-29T15:31:11.501Z,3.20
2017-12-29T15:33:39.930Z,3.23
2017-12-29T15:36:08.926Z,2.97
2017-12-29T15:38:37.257Z,2.97
2017-12-29T15:41:05.523Z,3.37
2017-12-29T15:43:33.768Z,4.10
2017-12-29T15:46:02.005Z,3.77
2017-12-29T15:48:30.726Z,3.50
2017-12-29T15:50:58.970Z,3.17
2017-12-29T15:53:27.974Z,2.83
2017-12-29T15:55:57.168Z,3.83
2017-12-29T15:58:26.162Z,3.37
2017-12-29T16:00:58.019Z,4.10
2017-12-29T16:03:27.018Z,3.20
2017-12-29T16:05:56.182Z,3.33
2017-12-29T16:08:24.494Z,3.00
2017-12-29T16:10:53.863Z,3.70
2017-12-29T16:13:22.098Z,4.17
2017-12-29T16:15:50.370Z,3.70
2017-12-29T16:18:18.616Z,3.67
2017-12-29T16:20:46.863Z,3.50
2017-12-29T16:23:15.129Z,3.90
2017-12-29T16:25:43.826Z,3.83
2017-12-29T16:28:12.068Z,3.57
2017-12-29T16:30:40.509Z,3.23
2017-12-29T16:33:08.743Z,3.83
2017-12-29T16:35:36.986Z,4.00
2017-12-29T16:38:06.368Z,3.47
2017-12-29T16:40:34.610Z,4.00
2017-12-29T16:43:03.613Z,3.40
2017-12-29T16:45:31.886Z,4.30
2017-12-29T16:48:00.134Z,4.27
2017-12-29T16:50:28.466Z,4.33
2017-12-29T16:52:56.839Z,3.47
2017-12-29T16:55:25.086Z,3.70
2017-12-29T16:57:53.324Z,4.20
2017-12-29T17:00:21.713Z,3.40
2017-12-29T17:02:49.997Z,3.77
2017-12-29T17:05:18.247Z,3.70
2017-12-29T17:07:47.278Z,6.47
2017-12-29T17:10:15.518Z,3.90
2017-12-29T17:12:43.759Z,3.53
2017-12-29T17:15:12.414Z,3.30
2017-12-29T17:17:40.658Z,3.80
2017-12-29T17:20:08.982Z,3.93
2017-12-29T17:22:37.230Z,3.20
2017-12-29T17:25:05.474Z,5.13
2017-12-29T17:27:34.038Z,3.60
2017-12-29T17:30:02.306Z,4.10
2017-12-29T17:32:30.854Z,3.27
2017-12-29T17:34:59.462Z,3.53
2017-12-29T17:37:28.139Z,3.87
2017-12-29T17:39:56.376Z,3.77
2017-12-29T17:42:25.183Z,3.77
2017-12-29T17:44:53.454Z,4.50
2017-12-29T17:47:21.702Z,4.63
2017-12-29T17:49:49.963Z,3.90
2017-12-29T17:52:18.310Z,3.10
2017-12-29T17:54:47.522Z,3.63
2017-12-29T17:57:15.767Z,3.57
2017-12-29T17:59:44.282Z,3.27
2017-12-29T18:02:12.498Z,3.70
2017-12-29T18:04:41.506Z,3.27
2017-12-29T18:07:11.707Z,3.33
2017-12-29T18:09:40.050Z,3.00
2017-12-29T18:12:08.292Z,2.17
2017-12-29T18:14:36.550Z,3.00
2017-12-29T18:17:05.564Z,4.13
2017-12-29T18:19:33.810Z,3.07
2017-12-29T18:22:02.343Z,2.33
2017-12-29T18:24:30.654Z,4.40
2017-12-29T18:26:58.859Z,4.30
2017-12-29T18:29:27.127Z,4.70
2017-12-29T18:31:56.126Z,4.03
2017-12-29T18:34:25.140Z,4.50
2017-12-29T18:36:53.489Z,4.57
2017-12-29T18:39:21.725Z,4.03
2017-12-29T18:41:49.962Z,5.17
2017-12-29T18:44:19.291Z,4.43
2017-12-29T18:46:47.531Z,4.57
2017-12-29T18:49:15.770Z,4.53
2017-12-29T18:51:44.239Z,4.83
2017-12-29T18:54:13.649Z,4.90
2017-12-29T18:56:41.882Z,4.60
2017-12-29T18:59:10.163Z,4.77
2017-12-29T19:01:38.410Z,4.57
2017-12-29T19:04:06.646Z,3.40
2017-12-29T19:06:37.182Z,4.27
2017-12-29T19:09:05.450Z,4.60
2017-12-29T19:11:33.670Z,4.50
2017-12-29T19:14:01.934Z,4.47
2017-12-29T19:16:30.178Z,4.53
2017-12-29T19:18:58.482Z,5.27
2017-12-29T19:21:26.775Z,4.90
2017-12-29T19:23:55.779Z,5.07
2017-12-29T19:26:24.822Z,5.10
2017-12-29T19:28:53.616Z,5.70
2017-12-29T19:31:21.834Z,4.70
2017-12-29T19:33:50.845Z,5.30
2017-12-29T19:36:19.202Z,5.50
2017-12-29T19:38:48.277Z,5.30
2017-12-29T19:41:16.510Z,5.27
2017-12-29T19:43:44.803Z,5.00
2017-12-29T19:46:13.039Z,5.00
2017-12-29T19:48:42.086Z,5.00
2017-12-29T19:51:10.562Z,5.70
2017-12-29T19:53:38.802Z,4.93
2017-12-29T19:56:07.064Z,5.10
2017-12-29T19:58:35.329Z,4.70
2017-12-29T20:01:03.769Z,5.50
2017-12-29T20:03:32.015Z,5.20
2017-12-29T20:06:00.354Z,5.43
2017-12-29T20:08:28.726Z,5.13
2017-12-29T20:10:58.010Z,5.33
2017-12-29T20:13:26.351Z,5.50
2017-12-29T20:15:54.598Z,4.70
2017-12-29T20:18:22.859Z,4.43
2017-12-29T20:20:51.134Z,4.67
2017-12-29T20:23:19.658Z,5.93
2017-12-29T20:25:47.890Z,4.17
2017-12-29T20:28:16.762Z,5.00
2017-12-29T20:30:45.285Z,5.30
2017-12-29T20:33:13.525Z,4.17
2017-12-29T20:35:42.307Z,5.67
2017-12-29T20:38:10.535Z,4.87
2017-12-29T20:40:39.546Z,5.20
2017-12-29T20:43:07.834Z,6.70
2017-12-29T20:45:36.071Z,6.00
2017-12-29T20:48:04.306Z,6.73
2017-12-29T20:50:32.585Z,6.50
2017-12-29T20:53:00.811Z,6.27
2017-12-29T20:55:29.818Z,6.17
2017-12-29T20:57:58.526Z,5.40
2017-12-29T21:00:26.782Z,5.43
2017-12-29T21:02:55.058Z,5.33
2017-12-29T21:05:23.328Z,5.93
2017-12-29T21:07:52.325Z,5.50
2017-12-29T21:10:20.614Z,5.93
2017-12-29T21:12:48.859Z,5.47
2017-12-29T21:15:17.102Z,6.13
2017-12-29T21:17:45.347Z,5.70
2017-12-29T21:20:13.653Z,6.10
2017-12-29T21:22:42.862Z,6.07
2017-12-29T21:25:11.098Z,6.57
2017-12-29T21:27:39.362Z,6.57
2017-12-29T21:30:07.682Z,5.97
2017-12-29T21:32:35.927Z,5.90
2017-12-29T21:35:04.203Z,6.80
2017-12-29T21:37:32.445Z,6.60
2017-12-29T21:40:00.895Z,7.30
2017-12-29T21:42:29.250Z,7.07
2017-12-29T21:44:57.489Z,7.07
2017-12-29T21:47:25.764Z,6.77
2017-12-29T21:49:54.014Z,6.60
2017-12-29T21:52:22.259Z,6.90
2017-12-29T21:54:50.498Z,6.73
2017-12-29T21:57:19.052Z,7.53
2017-12-29T21:59:47.274Z,6.97
2017-12-29T22:02:15.522Z,7.23
2017-12-29T22:04:44.282Z,7.10
2017-12-29T22:07:12.519Z,7.27
2017-12-29T22:09:40.863Z,7.37
2017-12-29T22:12:09.136Z,7.93
2017-12-29T22:14:37.374Z,8.20
2017-12-29T22:17:05.610Z,8.67
2017-12-29T22:19:33.932Z,8.57
2017-12-29T22:22:02.155Z,6.70
2017-12-29T22:24:31.166Z,7.50
2017-12-29T22:26:59.920Z,7.97
2017-12-29T22:29:28.142Z,7.20
2017-12-29T22:31:57.167Z,7.30
2017-12-29T22:34:25.442Z,7.17
2017-12-29T22:36:53.682Z,7.33
2017-12-29T22:39:21.993Z,7.60
2017-12-29T22:41:50.266Z,7.80
2017-12-29T22:44:18.520Z,8.57
2017-12-29T22:46:46.782Z,8.30
2017-12-29T22:49:15.287Z,9.20
2017-12-29T22:51:43.534Z,8.87
2017-12-29T22:54:11.786Z,7.33
2017-12-29T22:56:40.054Z,7.63
2017-12-29T22:59:08.329Z,7.00
2017-12-29T23:01:36.554Z,6.80
2017-12-29T23:04:04.822Z,8.10
2017-12-29T23:06:33.268Z,7.27
2017-12-29T23:09:01.498Z,7.60
2017-12-29T23:11:29.826Z,7.07
2017-12-29T23:13:58.091Z,7.13
2017-12-29T23:16:26.458Z,5.30
2017-12-29T23:18:54.730Z,4.83
2017-12-29T23:21:22.970Z,5.27
2017-12-29T23:23:53.438Z,6.70
2017-12-29T23:26:21.702Z,6.07
2017-12-29T23:28:49.954Z,5.33
2017-12-29T23:31:18.266Z,5.20
2017-12-29T23:33:47.043Z,6.17
2017-12-29T23:36:15.287Z,6.33
2017-12-29T23:38:44.634Z,6.10
2017-12-29T23:41:12.915Z,5.77
2017-12-29T23:43:42.664Z,4.93
2017-12-29T23:46:11.671Z,4.30
2017-12-29T23:48:39.931Z,4.70
2017-12-29T23:51:08.370Z,4.27
2017-12-29T23:53:36.610Z,4.50
2017-12-29T23:56:04.953Z,4.97
2017-12-29T23:58:33.194Z,3.50
